Lerwick, United Kingdom
Current Conditions -  °F | °C
As of 8:50 PM on Thursday 18 Dec 2014 (Local Time) from EGPB Reporting Station
Rain Showers Rain Showers  
Wind Chill: 30°   Ceiling: Unl
Heat Index: 41°   Visibility: 6mi
Dew Point: 37°   Wind: 30mph
Humidity: 87%   Direction: 240°WSW
Pressure: 29.06"   Gusts: NA
Location:  60.15°N, 1.15°W
Report Text: EGPB 182050Z 24026KT 9999 VCSH FEW012 SCT022 05/03 Q0984 TEMPO 6000 SHRA
Loading
Personal Weather Stations






























Interactive Weather Map New forecast layout! Learn more

10-Day Weather Forecast

Advertisements
Track Severe Weather on mobile